Time;durP1;ratioP1;P1;durP2;ratioP2;P2;SDS_P1;SDS_P2;PMS_P1;PMS_P2;Temp;Humidity;BMP_temperature;BMP_pressure;BME280_temperature;BME280_humidity;BME280_pressure;Samples;Min_cycle;Max_cycle;Signal;HPM_P1;HPM_P2
2023/02/26 00:00:16;;;;;;;13.02;5.18;;;;;;;13.88;39.44;93781.06;5084168;28;20024;-83
2023/02/26 00:02:44;;;;;;;6.53;4.32;;;;;;;13.85;39.10;93793.84;5083759;28;20054;-83
2023/02/26 00:05:11;;;;;;;10.00;4.35;;;;;;;13.81;39.13;93793.31;5084818;28;20506;-83
2023/02/26 00:07:37;;;;;;;15.48;4.88;;;;;;;13.85;39.03;93755.19;5083611;28;20473;-82
2023/02/26 00:10:05;;;;;;;10.60;4.43;;;;;;;13.84;39.00;93819.22;5083894;28;20434;-84
2023/02/26 00:12:30;;;;;;;8.95;5.10;;;;;;;13.87;38.99;93766.50;5085939;28;20030;-82
2023/02/26 00:14:56;;;;;;;10.02;4.45;;;;;;;13.81;38.89;93760.16;5085392;28;20079;-82
2023/02/26 00:17:51;;;;;;;10.50;4.05;;;;;;;13.89;37.87;93769.53;5069349;28;20504;-82
2023/02/26 00:20:17;;;;;;;13.07;4.75;;;;;;;13.86;37.92;93767.00;5058266;28;20047;-82
2023/02/26 00:22:43;;;;;;;15.55;5.35;;;;;;;13.84;38.17;93758.44;5083751;28;20074;-82
2023/02/26 00:25:09;;;;;;;9.90;4.13;;;;;;;13.96;38.51;93768.34;5084037;28;20032;-83
2023/02/26 00:27:35;;;;;;;12.10;4.25;;;;;;;13.84;38.66;93756.44;5084907;28;20387;-83
2023/02/26 00:30:02;;;;;;;12.75;4.50;;;;;;;13.82;38.54;93759.69;5084101;28;20028;-82
2023/02/26 00:32:28;;;;;;;15.63;4.63;;;;;;;13.79;38.80;93765.41;5084815;28;20028;-82
2023/02/26 00:34:54;;;;;;;11.15;4.47;;;;;;;13.74;38.73;93777.16;5084246;28;20035;-83
2023/02/26 00:37:52;;;;;;;9.05;4.22;;;;;;;13.76;38.12;93780.19;5089741;28;20051;-83
2023/02/26 00:40:26;;;;;;;10.93;3.80;;;;;;;13.76;37.83;93758.88;5108541;28;20016;-83
2023/02/26 00:42:52;;;;;;;11.25;3.75;;;;;;;13.81;37.65;93751.88;5087834;28;20032;-83
2023/02/26 00:45:17;;;;;;;8.00;3.83;;;;;;;13.79;37.89;93770.94;5082125;28;20100;-82
2023/02/26 00:48:11;;;;;;;11.30;4.72;;;;;;;13.84;37.29;93772.25;5075090;28;20024;-81
2023/02/26 00:50:48;;;;;;;15.02;4.53;;;;;;;13.75;37.52;93732.47;5066801;28;20044;-82
2023/02/26 00:53:21;;;;;;;9.07;4.32;;;;;;;13.84;38.09;93752.91;5083377;28;20122;-82
2023/02/26 00:55:47;;;;;;;10.68;4.30;;;;;;;13.85;37.88;93749.66;5087421;28;20418;-83
2023/02/26 00:58:12;;;;;;;12.60;3.90;;;;;;;13.87;37.77;93741.63;5071614;28;20051;-81
2023/02/26 01:00:37;;;;;;;6.50;3.95;;;;;;;13.92;37.03;93763.03;5076788;28;20028;-83
2023/02/26 01:03:03;;;;;;;12.52;4.60;;;;;;;13.93;37.19;93742.44;5068243;28;20024;-82
2023/02/26 01:05:29;;;;;;;9.00;4.18;;;;;;;13.92;36.76;93732.66;5069178;28;20509;-82
2023/02/26 01:07:57;;;;;;;7.93;3.72;;;;;;;13.87;37.00;93738.13;5085960;28;20027;-82
2023/02/26 01:10:25;;;;;;;9.40;3.72;;;;;;;13.86;36.86;93747.66;5086434;28;20036;-82
2023/02/26 01:12:50;;;;;;;20.35;4.38;;;;;;;13.86;36.91;93745.66;5089915;28;20024;-83
2023/02/26 01:15:16;;;;;;;13.27;3.72;;;;;;;13.85;36.93;93740.63;5088151;28;20028;-82
2023/02/26 01:18:13;;;;;;;8.45;3.17;;;;;;;13.89;36.79;93714.28;5081449;28;20093;-82
2023/02/26 01:20:47;;;;;;;11.95;3.63;;;;;;;13.87;36.87;93719.53;5064534;28;20040;-82
2023/02/26 01:23:21;;;;;;;7.90;4.82;;;;;;;13.87;37.10;93727.81;5069039;28;20036;-83
2023/02/26 01:25:56;;;;;;;7.65;3.55;;;;;;;13.85;37.16;93726.81;5084463;28;20028;-81
2023/02/26 01:28:22;;;;;;;9.45;4.47;;;;;;;13.86;36.45;93717.25;5082191;28;20040;-82
2023/02/26 01:30:48;;;;;;;10.32;3.60;;;;;;;13.82;36.95;93715.50;5065849;28;20024;-82
2023/02/26 01:33:25;;;;;;;11.25;3.65;;;;;;;13.85;36.90;93699.19;5067890;28;20073;-82
2023/02/26 01:35:54;;;;;;;11.45;3.40;;;;;;;13.88;36.80;93695.44;5059713;28;20456;-82
2023/02/26 01:38:32;;;;;;;9.57;3.55;;;;;;;13.92;36.77;93688.44;5069004;28;20482;-83
2023/02/26 01:41:38;;;;;;;11.40;3.58;;;;;;;13.96;36.56;93679.94;5075959;28;20473;-81
2023/02/26 01:44:06;;;;;;;16.85;4.25;;;;;;;13.93;36.58;93683.66;5073573;28;20048;-82
2023/02/26 01:47:14;;;;;;;10.20;3.65;;;;;;;13.88;36.18;93684.38;5089983;28;20040;-82
2023/02/26 01:49:40;;;;;;;14.88;4.53;;;;;;;13.82;36.07;93684.34;5083564;28;20071;-81
2023/02/26 01:52:26;;;;;;;10.38;4.45;;;;;;;13.88;35.73;93687.94;5074523;28;20438;-82
2023/02/26 01:54:52;;;;;;;12.38;3.75;;;;;;;13.95;35.22;93706.06;5077762;28;20020;-82
2023/02/26 01:57:18;;;;;;;8.05;4.03;;;;;;;13.92;35.12;93671.88;5065443;28;20028;-82
2023/02/26 01:59:45;;;;;;;16.50;4.28;;;;;;;13.87;35.23;93658.75;5085617;28;20395;-82
2023/02/26 02:02:12;;;;;;;8.15;2.80;;;;;;;13.92;35.31;93662.81;5072044;28;20039;-82
2023/02/26 02:04:39;;;;;;;13.18;3.85;;;;;;;13.91;35.47;93675.88;5064478;28;20063;-83
2023/02/26 02:07:05;;;;;;;10.18;4.00;;;;;;;13.89;35.81;93653.53;5066998;28;20066;-81
2023/02/26 02:09:33;;;;;;;8.75;3.22;;;;;;;13.82;35.46;93648.44;5067384;28;20059;-82
2023/02/26 02:12:11;;;;;;;12.15;3.83;;;;;;;13.82;35.62;93656.72;5079490;28;20052;-83
2023/02/26 02:14:49;;;;;;;10.40;3.53;;;;;;;13.87;35.36;93658.00;5083646;28;20119;-81
2023/02/26 02:17:24;;;;;;;18.58;5.15;;;;;;;13.88;35.63;93656.75;5072617;28;20042;-82
2023/02/26 02:20:14;;;;;;;13.88;3.55;;;;;;;13.80;35.65;93665.47;5074627;28;20066;-82
2023/02/26 02:22:58;;;;;;;18.35;3.70;;;;;;;13.86;35.46;93648.97;5066152;28;20036;-81
2023/02/26 02:25:51;;;;;;;8.35;3.47;;;;;;;13.85;35.59;93655.75;5073244;28;20028;-82
2023/02/26 02:28:20;;;;;;;10.05;3.67;;;;;;;13.68;35.66;93657.59;5076721;28;20506;-81
2023/02/26 02:30:52;;;;;;;10.55;4.45;;;;;;;13.63;35.88;93666.56;5077825;28;20036;-82
2023/02/26 02:33:22;;;;;;;13.65;4.18;;;;;;;13.59;35.91;93661.28;5069088;28;20036;-81
2023/02/26 02:36:01;;;;;;;12.18;3.45;;;;;;;13.62;36.00;93662.31;5072046;28;20024;-82
2023/02/26 02:38:32;;;;;;;9.25;3.15;;;;;;;13.66;35.86;93665.63;5063033;28;20036;-83
2023/02/26 02:41:06;;;;;;;14.80;3.70;;;;;;;13.65;35.66;93678.66;5064870;28;20105;-82
2023/02/26 02:43:31;;;;;;;;;;;;;;;13.66;35.46;93654.56;5082571;28;20028;-83
2023/02/26 02:46:06;;;;;;;7.53;3.42;;;;;;;13.62;35.57;93685.16;5051337;28;19978;-83
2023/02/26 02:49:02;;;;;;;7.18;3.05;;;;;;;13.57;35.46;93680.31;5067801;28;20032;-82
2023/02/26 02:51:32;;;;;;;15.65;3.50;;;;;;;13.54;35.42;93667.50;5081051;28;20024;-84
2023/02/26 02:54:09;;;;;;;6.68;2.97;;;;;;;13.61;35.62;93663.56;5107497;28;20033;-82
2023/02/26 02:56:41;;;;;;;8.70;3.53;;;;;;;13.65;35.56;93675.13;5097187;28;20024;-82
2023/02/26 02:59:28;;;;;;;11.77;3.10;;;;;;;13.70;35.20;93685.47;5067529;28;20039;-83
2023/02/26 03:02:26;;;;;;;9.43;3.35;;;;;;;13.65;35.29;93680.66;5049734;28;20474;-82
2023/02/26 03:04:51;;;;;;;11.57;3.72;;;;;;;13.64;35.01;93677.13;5056557;28;20096;-83
2023/02/26 03:07:17;;;;;;;11.40;3.00;;;;;;;13.61;35.11;93688.41;5081461;28;20115;-83
2023/02/26 03:09:43;;;;;;;9.35;3.30;;;;;;;13.65;34.76;93688.94;5066150;28;20522;-83
2023/02/26 03:12:08;;;;;;;12.07;3.15;;;;;;;13.68;34.84;93715.59;5064302;28;20074;-84
2023/02/26 03:14:34;;;;;;;9.07;3.42;;;;;;;13.65;34.64;93686.16;5080787;28;20043;-82
2023/02/26 03:17:31;;;;;;;12.90;3.47;;;;;;;13.71;34.50;93693.28;5064284;28;20028;-82
2023/02/26 03:20:08;;;;;;;12.63;3.60;;;;;;;13.71;34.56;93684.25;5064504;28;20028;-83
2023/02/26 03:22:55;;;;;;;7.47;3.35;;;;;;;13.68;34.80;93690.72;5080655;28;20032;-82
2023/02/26 03:25:23;;;;;;;10.02;2.80;;;;;;;13.71;34.33;93690.53;5066582;28;20040;-83
2023/02/26 03:27:58;;;;;;;9.68;3.30;;;;;;;13.73;34.44;93688.03;5081120;28;20025;-83
2023/02/26 03:30:34;;;;;;;11.57;3.25;;;;;;;13.76;34.27;93684.31;5064304;28;20073;-82
2023/02/26 03:33:02;;;;;;;7.93;2.88;;;;;;;13.78;34.14;93676.28;5064284;28;20119;-83
2023/02/26 03:35:51;;;;;;;10.02;3.28;;;;;;;13.77;34.23;93674.00;5080805;28;20025;-83
2023/02/26 03:38:24;;;;;;;9.77;3.10;;;;;;;13.77;34.17;93685.81;5080906;28;20025;-82
2023/02/26 03:41:03;;;;;;;10.15;3.08;;;;;;;13.72;34.36;93666.44;5064177;28;20071;-82
2023/02/26 03:43:34;;;;;;;12.02;3.75;;;;;;;13.74;34.49;93678.50;5080791;28;20112;-82
2023/02/26 03:46:04;;;;;;;10.52;3.40;;;;;;;13.74;34.66;93670.19;5065660;28;20028;-81
2023/02/26 03:48:30;;;;;;;10.95;3.85;;;;;;;13.64;35.08;93665.31;5046887;28;20033;-82
2023/02/26 03:51:08;;;;;;;12.45;3.90;;;;;;;13.67;35.18;93678.16;5081478;28;20569;-83
2023/02/26 03:53:43;;;;;;;13.93;3.97;;;;;;;13.61;35.33;93666.31;5050306;28;20025;-84
2023/02/26 03:56:17;;;;;;;11.48;3.70;;;;;;;13.61;35.62;93677.34;5081786;28;20443;-82
2023/02/26 03:58:42;;;;;;;;;;;;;;;13.60;35.62;93668.31;5086532;28;20067;-83
2023/02/26 04:01:12;;;;;;;16.88;4.25;;;;;;;13.59;35.84;93669.56;5065764;28;19912;-83
2023/02/26 04:03:44;;;;;;;9.68;3.50;;;;;;;13.54;35.99;93670.28;5063831;28;20379;-82
2023/02/26 04:06:09;;;;;;;19.88;4.50;;;;;;;13.41;36.20;93667.84;5065523;28;20040;-82
2023/02/26 04:08:36;;;;;;;12.27;3.55;;;;;;;13.43;36.50;93672.91;5064235;28;20029;-82
2023/02/26 04:11:09;;;;;;;14.20;4.28;;;;;;;13.42;36.52;93668.59;5081035;28;20048;-84
2023/02/26 04:13:34;;;;;;;14.60;3.30;;;;;;;13.47;36.69;93665.91;5063394;28;20056;-82
2023/02/26 04:16:01;;;;;;;15.13;4.18;;;;;;;13.60;36.22;93673.09;5066866;28;20026;-82
2023/02/26 04:18:26;;;;;;;10.50;3.63;;;;;;;13.63;35.91;93655.53;5069293;28;20035;-83
2023/02/26 04:20:51;;;;;;;11.30;3.75;;;;;;;13.71;35.67;93649.09;5068991;28;20028;-82
2023/02/26 04:23:18;;;;;;;16.65;3.92;;;;;;;13.66;35.84;93646.28;5067553;28;20078;-82
2023/02/26 04:25:44;;;;;;;12.60;4.18;;;;;;;13.67;35.82;93642.28;5084013;28;20109;-82
2023/02/26 04:28:09;;;;;;;9.55;3.65;;;;;;;13.63;35.85;93633.44;5084270;28;20029;-83
2023/02/26 04:30:35;;;;;;;14.38;4.15;;;;;;;13.57;35.78;93621.59;5050798;28;20089;-82
2023/02/26 04:33:00;;;;;;;14.15;3.55;;;;;;;13.60;35.73;93639.94;5068566;28;20031;-82
2023/02/26 04:35:26;;;;;;;17.77;3.97;;;;;;;13.61;35.31;93611.09;5067452;28;20028;-83
2023/02/26 04:37:51;;;;;;;16.45;5.38;;;;;;;13.55;35.66;93627.59;5067087;28;20025;-83
2023/02/26 04:40:16;;;;;;;12.48;3.90;;;;;;;13.50;35.62;93631.06;5084508;28;20029;-83
2023/02/26 04:42:42;;;;;;;17.17;4.43;;;;;;;13.47;35.69;93623.75;5068650;28;20060;-83
2023/02/26 04:45:08;;;;;;;12.93;3.75;;;;;;;13.51;35.62;93618.78;5083819;28;20583;-82
2023/02/26 04:47:33;;;;;;;12.88;4.18;;;;;;;13.59;35.80;93608.03;5067499;28;20028;-82
2023/02/26 04:49:59;;;;;;;15.57;4.03;;;;;;;13.64;35.61;93601.81;5068541;28;20021;-81
2023/02/26 04:52:24;;;;;;;12.57;3.60;;;;;;;13.60;35.12;93615.09;5071821;28;20024;-81
2023/02/26 04:54:49;;;;;;;11.95;3.75;;;;;;;13.63;35.10;93608.59;5083537;28;20060;-81
2023/02/26 04:57:15;;;;;;;14.43;3.83;;;;;;;13.64;35.15;93602.56;5068473;28;20066;-81
2023/02/26 04:59:41;;;;;;;14.32;4.10;;;;;;;13.62;34.93;93604.31;5093886;28;20028;-81
2023/02/26 05:02:06;;;;;;;16.88;3.30;;;;;;;13.61;34.76;93595.28;5076295;28;20461;-83
2023/02/26 05:04:31;;;;;;;9.98;3.63;;;;;;;13.67;34.61;93598.09;5070958;28;20077;-82
2023/02/26 05:06:57;;;;;;;13.82;3.83;;;;;;;13.64;34.99;93574.97;5109225;28;20115;-82
2023/02/26 05:09:23;;;;;;;11.30;3.95;;;;;;;13.67;34.76;93601.59;5093195;28;20036;-83
2023/02/26 05:11:48;;;;;;;12.43;3.42;;;;;;;13.62;34.25;93557.38;5071409;28;20433;-83
2023/02/26 05:14:15;;;;;;;9.02;2.80;;;;;;;13.50;33.74;93573.84;5068041;28;20437;-82
2023/02/26 05:16:40;;;;;;;10.93;3.35;;;;;;;13.55;33.69;93575.91;5066911;28;20111;-83
2023/02/26 05:19:06;;;;;;;16.65;3.80;;;;;;;13.54;33.79;93577.16;5084668;28;20100;-82
2023/02/26 05:21:31;;;;;;;13.65;4.80;;;;;;;13.52;34.05;93548.50;5067514;28;20029;-83
2023/02/26 05:23:57;;;;;;;12.00;3.88;;;;;;;13.50;33.90;93560.03;5066154;28;20532;-82
2023/02/26 05:26:22;;;;;;;12.35;2.90;;;;;;;13.54;33.47;93554.31;5068543;28;20111;-83
2023/02/26 05:28:48;;;;;;;11.75;2.90;;;;;;;13.54;33.53;93593.72;5067327;28;20028;-83
2023/02/26 05:31:19;;;;;;;14.77;2.97;;;;;;;13.55;33.50;93561.34;5090289;28;20053;-83
2023/02/26 05:33:44;;;;;;;10.55;3.13;;;;;;;13.56;33.00;93565.63;5069650;28;20036;-83
2023/02/26 05:36:14;;;;;;;14.73;3.42;;;;;;;13.56;32.98;93568.38;5069346;28;20057;-81
2023/02/26 05:38:41;;;;;;;9.05;2.67;;;;;;;13.63;32.20;93562.41;5075599;28;20023;-82
2023/02/26 05:41:11;;;;;;;11.57;2.67;;;;;;;13.73;32.12;93566.50;5073941;28;20036;-82
2023/02/26 05:43:36;;;;;;;12.77;3.45;;;;;;;13.83;32.09;93558.81;5069362;28;20068;-82
2023/02/26 05:46:06;;;;;;;11.45;3.47;;;;;;;13.86;32.23;93566.09;5070246;28;20084;-82
2023/02/26 05:48:34;;;;;;;13.02;2.97;;;;;;;13.84;32.47;93565.09;5071077;28;20135;-82
2023/02/26 05:51:00;;;;;;;15.95;2.95;;;;;;;13.90;32.50;93568.63;5070200;28;20016;-81
2023/02/26 05:53:26;;;;;;;12.40;3.10;;;;;;;13.96;32.33;93570.19;5083958;28;20466;-82
2023/02/26 05:55:52;;;;;;;8.00;3.38;;;;;;;13.93;32.52;93562.88;5084625;28;20040;-82
2023/02/26 05:58:18;;;;;;;10.20;3.13;;;;;;;13.99;32.46;93571.19;5068631;28;20086;-81
2023/02/26 06:00:43;;;;;;;14.82;3.63;;;;;;;14.12;32.18;93581.88;5077801;28;20028;-83
2023/02/26 06:03:13;;;;;;;10.50;3.50;;;;;;;14.12;31.42;93612.25;5071205;28;20029;-83
2023/02/26 06:05:44;;;;;;;19.33;7.38;;;;;;;14.19;31.56;93564.81;5067326;28;20123;-80
2023/02/26 06:08:11;;;;;;;11.45;3.00;;;;;;;14.18;31.07;93568.84;5055230;28;20044;-81
2023/02/26 06:10:36;;;;;;;11.65;2.75;;;;;;;14.22;31.19;93564.59;5073298;28;20109;-82
2023/02/26 06:13:04;;;;;;;19.92;2.92;;;;;;;14.32;30.29;93601.06;5071287;28;20482;-81
2023/02/26 06:16:05;;;;;;;12.40;3.22;;;;;;;14.42;30.44;93565.69;5074007;28;20028;-81
2023/02/26 06:18:32;;;;;;;12.32;3.13;;;;;;;14.49;30.35;93582.59;5075809;28;20047;-84
2023/02/26 06:21:00;;;;;;;12.63;3.30;;;;;;;14.58;29.64;93568.56;5055649;28;20086;-84
2023/02/26 06:23:26;;;;;;;11.18;3.05;;;;;;;14.65;29.44;93603.31;5066545;28;20614;-83
2023/02/26 06:25:52;;;;;;;12.00;3.00;;;;;;;14.69;29.45;93569.88;5066450;28;20028;-82
2023/02/26 06:28:18;;;;;;;14.57;2.92;;;;;;;14.77;29.18;93581.97;5065875;28;20024;-82
2023/02/26 06:30:44;;;;;;;13.55;3.17;;;;;;;14.84;28.98;93598.09;5085114;28;20020;-83
2023/02/26 06:33:10;;;;;;;13.40;3.30;;;;;;;14.86;29.09;93579.00;5071902;28;20032;-82
2023/02/26 06:35:35;;;;;;;11.55;3.30;;;;;;;14.93;28.67;93592.34;5067657;28;20033;-83
2023/02/26 06:38:01;;;;;;;9.77;2.40;;;;;;;15.07;28.53;93583.09;5064876;28;20587;-82
2023/02/26 06:40:26;;;;;;;7.32;2.35;;;;;;;15.07;28.41;93607.25;5081339;28;20020;-82
2023/02/26 06:42:52;;;;;;;18.08;3.35;;;;;;;15.05;28.39;93573.78;5068618;28;20024;-83
2023/02/26 06:45:17;;;;;;;13.48;3.10;;;;;;;15.09;28.06;93613.06;5065186;28;20620;-83
2023/02/26 06:47:43;;;;;;;14.23;2.55;;;;;;;15.20;28.27;93579.88;5063884;28;20124;-83
2023/02/26 06:50:09;;;;;;;21.45;3.53;;;;;;;15.31;27.85;93579.91;5065676;28;20032;-83
2023/02/26 06:52:35;;;;;;;10.45;2.60;;;;;;;15.41;27.80;93575.63;5063511;28;20427;-83
2023/02/26 06:55:00;;;;;;;15.88;2.97;;;;;;;15.50;27.31;93563.56;5065689;28;20024;-84
2023/02/26 06:57:26;;;;;;;6.63;2.28;;;;;;;15.53;26.95;93570.09;5066512;28;20039;-83
2023/02/26 06:59:51;;;;;;;11.73;2.95;;;;;;;15.59;27.05;93532.84;5065462;28;20016;-82
2023/02/26 07:02:19;;;;;;;14.27;2.88;;;;;;;15.64;26.74;93559.81;5069326;28;20093;-84
2023/02/26 07:04:44;;;;;;;14.65;3.67;;;;;;;15.60;26.58;93595.31;5084760;28;20498;-84
2023/02/26 07:07:10;;;;;;;10.75;2.80;;;;;;;15.65;26.90;93624.28;5086973;28;20093;-83
2023/02/26 07:09:36;;;;;;;15.20;2.67;;;;;;;15.71;26.54;93596.56;5087826;28;20024;-82
2023/02/26 07:12:02;;;;;;;11.18;2.95;;;;;;;15.76;26.67;93584.75;5099121;28;20024;-82
2023/02/26 07:14:27;;;;;;;12.98;2.55;;;;;;;15.72;26.95;93601.63;5076019;28;20570;-82
2023/02/26 07:16:52;;;;;;;11.95;2.70;;;;;;;15.77;26.87;93566.88;5077655;28;20036;-81
2023/02/26 07:19:18;;;;;;;8.90;2.38;;;;;;;15.72;27.03;93626.56;5087641;28;21441;-82
2023/02/26 07:21:45;;;;;;;11.20;2.83;;;;;;;15.77;26.99;93584.28;5089213;28;20029;-83
2023/02/26 07:24:10;;;;;;;8.45;2.33;;;;;;;15.81;27.18;93606.16;5086429;28;20032;-81
2023/02/26 07:26:36;;;;;;;11.30;3.00;;;;;;;15.97;26.65;93593.56;5065247;28;20112;-83
2023/02/26 07:29:01;;;;;;;10.68;2.97;;;;;;;15.99;26.82;93629.84;5066884;28;20028;-83
2023/02/26 07:31:28;;;;;;;15.10;3.28;;;;;;;16.02;26.98;93606.69;5064881;28;20055;-84
2023/02/26 07:33:53;;;;;;;16.98;3.95;;;;;;;16.05;26.95;93573.16;5058380;28;20044;-82
2023/02/26 07:36:25;;;;;;;13.57;2.88;;;;;;;16.25;26.90;93563.81;5068656;28;20032;-83
2023/02/26 07:38:50;;;;;;;12.77;3.20;;;;;;;16.30;26.75;93588.00;5078197;28;20128;-83
2023/02/26 07:41:16;;;;;;;12.98;3.38;;;;;;;16.30;26.81;93557.50;5090930;28;20031;-82
2023/02/26 07:43:48;;;;;;;9.52;2.70;;;;;;;16.46;26.58;93580.94;5087157;28;20020;-83
2023/02/26 07:46:15;;;;;;;9.90;3.00;;;;;;;16.42;26.62;93570.09;5069401;28;20063;-82
2023/02/26 07:48:43;;;;;;;14.68;3.30;;;;;;;16.57;26.61;93585.66;5086673;28;20028;-84
2023/02/26 07:51:10;;;;;;;10.63;2.50;;;;;;;16.45;26.24;93582.16;5083172;28;20111;-83
2023/02/26 07:53:35;;;;;;;10.82;2.90;;;;;;;16.64;26.52;93549.09;5073169;28;20042;-82
2023/02/26 07:56:04;;;;;;;14.57;3.03;;;;;;;16.48;26.43;93569.31;5070853;28;20035;-82
2023/02/26 07:58:47;;;;;;;11.27;2.85;;;;;;;16.63;26.61;93561.44;5091183;28;20094;-83
2023/02/26 08:01:14;;;;;;;12.32;2.70;;;;;;;16.63;26.47;93569.75;5082748;28;20332;-83
2023/02/26 08:03:39;;;;;;;11.07;3.17;;;;;;;16.81;26.60;93563.69;5080036;28;20017;-82
2023/02/26 08:06:13;;;;;;;13.18;3.00;;;;;;;16.84;26.43;93584.09;5080582;28;20105;-83
2023/02/26 08:08:39;;;;;;;13.70;2.92;;;;;;;16.87;26.04;93621.97;5082100;28;20082;-81
2023/02/26 08:11:04;;;;;;;15.55;2.70;;;;;;;16.77;26.26;93592.97;5072140;28;20021;-82
2023/02/26 08:13:30;;;;;;;13.07;4.35;;;;;;;16.77;26.33;93571.53;5072673;28;20088;-81
2023/02/26 08:15:55;;;;;;;11.15;3.20;;;;;;;16.66;25.93;93533.44;5083547;28;20039;-82
2023/02/26 08:18:21;;;;;;;15.25;2.97;;;;;;;16.69;26.28;93579.59;5069443;28;20124;-82
2023/02/26 08:20:47;;;;;;;8.35;2.70;;;;;;;16.74;25.88;93580.84;5069698;28;20029;-83
2023/02/26 08:23:12;;;;;;;9.85;2.83;;;;;;;16.79;26.20;93588.41;5070600;28;20083;-83
2023/02/26 08:25:38;;;;;;;11.93;3.10;;;;;;;16.79;25.88;93587.66;5067853;28;20035;-82
2023/02/26 08:28:04;;;;;;;12.70;3.33;;;;;;;16.88;25.56;93577.03;5069123;28;20632;-82
2023/02/26 08:30:29;;;;;;;13.60;3.65;;;;;;;16.85;25.88;93611.34;5066425;28;20240;-82
2023/02/26 08:32:55;;;;;;;14.55;2.92;;;;;;;17.00;25.92;93591.63;5071113;28;20044;-82
2023/02/26 08:35:20;;;;;;;12.13;3.13;;;;;;;17.01;25.69;93593.13;5067882;28;20024;-82
2023/02/26 08:37:45;;;;;;;12.35;3.15;;;;;;;17.11;25.59;93572.13;5069734;28;20023;-84
2023/02/26 08:40:11;;;;;;;19.38;3.38;;;;;;;17.25;25.45;93582.16;5066898;28;20483;-82
2023/02/26 08:42:37;;;;;;;16.15;3.25;;;;;;;17.44;25.19;93623.22;5069468;28;20232;-81
2023/02/26 08:45:03;;;;;;;13.02;3.20;;;;;;;17.48;25.07;93595.91;5067412;28;20040;-83
2023/02/26 08:47:28;;;;;;;14.27;3.15;;;;;;;17.52;25.07;93590.84;5066015;28;20087;-82
2023/02/26 08:49:54;;;;;;;13.23;3.40;;;;;;;17.40;25.12;93617.19;5068844;28;20024;-84
2023/02/26 08:52:20;;;;;;;14.85;2.88;;;;;;;17.44;25.09;93607.31;5048976;28;20026;-83
2023/02/26 08:54:45;;;;;;;17.25;2.75;;;;;;;17.39;24.97;93574.78;5036635;28;20150;-84
2023/02/26 08:57:11;;;;;;;17.30;3.70;;;;;;;17.30;24.90;93590.97;5064197;28;20040;-82
2023/02/26 08:59:36;;;;;;;12.93;2.58;;;;;;;17.43;24.91;93649.47;5068119;28;20021;-82
2023/02/26 09:02:02;;;;;;;13.80;2.85;;;;;;;17.39;24.83;93635.13;5066550;28;20025;-81
2023/02/26 09:04:27;;;;;;;7.57;2.47;;;;;;;17.32;24.82;93680.88;5065744;28;20017;-83
2023/02/26 09:06:54;;;;;;;13.15;2.95;;;;;;;17.32;24.98;93603.09;5066006;28;20032;-81
2023/02/26 09:09:19;;;;;;;13.23;3.47;;;;;;;17.57;24.69;93600.44;5064724;28;20086;-82
2023/02/26 09:11:46;;;;;;;17.08;3.65;;;;;;;18.00;24.60;93606.94;5066843;28;20028;-83
2023/02/26 09:14:13;;;;;;;17.80;3.42;;;;;;;18.16;24.21;93702.66;5064001;28;20066;-81
2023/02/26 09:16:38;;;;;;;15.10;3.30;;;;;;;18.25;24.25;93618.91;5066772;28;20044;-82
2023/02/26 09:19:05;;;;;;;11.75;2.85;;;;;;;18.49;23.40;93615.41;5080891;28;20017;-81
2023/02/26 09:21:30;;;;;;;13.38;2.70;;;;;;;18.77;22.77;93631.09;5050541;28;20025;-80
2023/02/26 09:23:56;;;;;;;10.38;2.53;;;;;;;18.90;22.68;93634.00;5065985;28;20020;-82
2023/02/26 09:26:21;;;;;;;15.77;3.13;;;;;;;19.03;21.92;93597.88;5068155;28;20445;-81
2023/02/26 09:28:47;;;;;;;15.10;2.63;;;;;;;19.54;21.63;93608.41;5066894;28;20056;-80
2023/02/26 09:31:12;;;;;;;15.05;3.35;;;;;;;19.83;21.25;93654.91;5065095;28;20040;-81
2023/02/26 09:33:38;;;;;;;13.52;3.60;;;;;;;20.19;21.03;93626.75;5072608;28;20090;-82
2023/02/26 09:36:04;;;;;;;16.40;5.68;;;;;;;20.44;20.37;93630.16;5081166;28;20021;-83
2023/02/26 09:38:29;;;;;;;16.92;5.32;;;;;;;20.79;20.08;93622.72;5073432;28;20024;-82
2023/02/26 09:41:06;;;;;;;15.50;4.72;;;;;;;21.14;19.84;93650.25;5076542;28;20547;-82
2023/02/26 09:43:53;;;;;;;21.50;4.86;;;;;;;21.17;19.78;93642.84;5043878;28;1142482;-77
2023/02/26 09:46:45;;;;;;;22.13;6.22;;;;;;;21.20;19.76;93614.56;5084063;28;20198;-77
2023/02/26 09:49:16;;;;;;;16.92;5.03;;;;;;;21.67;19.13;93624.28;5066587;28;20178;-83
2023/02/26 09:51:43;;;;;;;18.48;4.60;;;;;;;21.75;19.29;93647.53;5068097;28;20079;-83
2023/02/26 09:54:16;;;;;;;12.10;4.03;;;;;;;21.57;19.13;93702.31;5066535;28;20056;-82
2023/02/26 09:56:42;;;;;;;19.50;4.47;;;;;;;21.82;18.97;93640.50;5064635;28;20437;-81
2023/02/26 09:59:09;;;;;;;10.95;3.45;;;;;;;21.86;19.19;93607.38;5067530;28;20028;-78
2023/02/26 10:01:42;;;;;;;12.18;3.00;;;;;;;22.03;19.60;93635.72;5063357;28;20518;-78
2023/02/26 10:04:29;;;;;;;15.57;3.15;;;;;;;22.11;19.06;93622.56;5065674;28;20105;-85
2023/02/26 10:07:32;;;;;;;7.35;3.05;;;;;;;22.09;19.43;93618.81;5067179;28;20104;-84
2023/02/26 10:10:24;;;;;;;15.63;3.35;;;;;;;22.00;19.35;93631.19;5069086;28;20044;-81
2023/02/26 10:12:52;;;;;;;14.73;3.00;;;;;;;22.00;19.28;93609.56;5051941;28;20151;-84
2023/02/26 10:15:18;;;;;;;13.18;4.15;;;;;;;21.77;19.60;93594.59;5067725;28;20120;-83
2023/02/26 10:18:17;;;;;;;18.58;3.90;;;;;;;22.80;18.82;93603.56;5066372;28;20120;-81
2023/02/26 10:20:55;;;;;;;13.63;2.80;;;;;;;23.44;18.19;93560.03;5046251;28;20050;-81
2023/02/26 10:23:45;;;;;;;9.75;3.40;;;;;;;23.48;18.49;93594.84;5050982;28;20028;-79
2023/02/26 10:26:18;;;;;;;15.70;3.13;;;;;;;24.01;17.22;93604.78;5045898;28;20436;-81
2023/02/26 10:28:53;;;;;;;;;;;;;;;24.47;17.42;93600.00;5029008;28;20033;-81
2023/02/26 10:31:39;;;;;;;16.30;3.58;;;;;;;24.97;17.19;93594.00;5027125;28;19916;-81
2023/02/26 10:34:06;;;;;;;17.80;2.92;;;;;;;25.78;16.33;93584.44;5044612;28;20116;-81
2023/02/26 10:37:07;;;;;;;17.15;3.58;;;;;;;26.41;15.81;93597.63;5042752;28;20040;-81
2023/02/26 10:40:14;;;;;;;20.05;3.60;;;;;;;26.58;15.83;93565.97;4968224;28;20084;-80
2023/02/26 10:42:44;;;;;;;7.85;2.70;;;;;;;26.46;15.58;93552.34;4977591;28;20045;-82
2023/02/26 10:45:32;;;;;;;16.63;3.83;;;;;;;25.56;16.38;93645.09;4982947;28;20058;-79
2023/02/26 10:48:06;;;;;;;11.02;3.40;;;;;;;25.12;16.91;93552.59;4967755;28;20145;-77
2023/02/26 10:50:32;;;;;;;10.15;3.35;;;;;;;23.63;18.37;93570.97;4985598;28;20038;-78
2023/02/26 10:52:57;;;;;;;17.58;4.13;;;;;;;23.45;18.74;93567.16;4986183;28;20044;-76
2023/02/26 10:55:28;;;;;;;13.30;3.22;;;;;;;22.56;19.89;93567.56;4988283;28;20034;-79
2023/02/26 10:58:22;;;;;;;21.05;4.43;;;;;;;22.37;20.03;93548.94;4985738;28;20033;-78
2023/02/26 11:00:52;;;;;;;16.05;3.53;;;;;;;21.98;20.43;93545.03;5004672;28;20050;-77
2023/02/26 11:03:20;;;;;;;14.48;3.67;;;;;;;21.57;20.69;93547.78;4987849;28;20030;-78
2023/02/26 11:05:47;;;;;;;11.70;3.97;;;;;;;21.41;21.00;93586.72;4986597;28;20135;-80
2023/02/26 11:08:32;;;;;;;9.90;2.72;;;;;;;21.14;21.47;93534.94;5004033;28;20489;-81
2023/02/26 11:11:00;;;;;;;13.50;3.67;;;;;;;20.28;22.31;93612.38;4986208;28;20527;-79
2023/02/26 11:13:28;;;;;;;13.23;3.78;;;;;;;19.49;22.91;93589.72;4988364;28;20480;-82
2023/02/26 11:15:57;;;;;;;9.77;2.90;;;;;;;19.47;23.19;93534.50;5033618;28;20037;-82
2023/02/26 11:18:35;;;;;;;13.55;3.33;;;;;;;18.83;23.86;93535.09;5064926;28;20028;-79
2023/02/26 11:21:05;;;;;;;12.40;3.38;;;;;;;18.59;24.70;93540.69;5064814;28;20031;-80
2023/02/26 11:23:31;;;;;;;13.95;3.50;;;;;;;18.42;24.83;93538.06;5065080;28;20025;-83
2023/02/26 11:26:15;;;;;;;20.63;4.35;;;;;;;18.23;25.12;93553.94;5070758;28;20051;-80
2023/02/26 11:28:46;;;;;;;13.50;3.38;;;;;;;17.99;25.81;93549.09;5074673;28;20060;-83
2023/02/26 11:31:15;;;;;;;9.10;3.08;;;;;;;17.76;26.43;93562.41;5064924;28;20454;-78
2023/02/26 11:33:48;;;;;;;12.13;3.05;;;;;;;17.69;26.58;93540.72;5063977;28;20036;-76
2023/02/26 11:36:17;;;;;;;11.63;2.88;;;;;;;17.56;26.82;93546.88;5045687;28;20510;-76
2023/02/26 11:38:57;;;;;;;9.60;3.33;;;;;;;17.47;27.05;93663.88;5064174;28;20025;-75
2023/02/26 11:41:24;;;;;;;13.52;3.10;;;;;;;17.38;27.31;93575.28;5062437;28;20021;-77